Fish Lake Valley, Nevada Weather observations

Data are for 10 minute period ending at time listed.
 Day   Time    Ave.   Ave.  Ave.  Vector   Max.   Stn.    Total    Solar   Ave.  
  of    of     Air    Rel.  Wind   Wind    Wind   Baro.  Precip.   Rad.    Soil  
Year   Day     Temp.  Hum.  Speed  Dir.    Gust   Pres.                    Temp. 
2016   (PST)    F      %     mph   deg.    mph     mb.     in.     W/m2     F    
--------------------------------------------------------------------------------- 
 145    3:50   43.7    82   10.9   305     14.9   846.8    0.00       4    64.9  
 145    4:00   43.7    82   11.1   292     14.5   846.8    0.00       4    64.8  
 145    4:10   43.6    84    9.6   283     14.9   846.9    0.00       4    64.8  
 145    4:20   43.6    84   10.8   288     15.2   846.9    0.00       4    64.7  
 145    4:30   43.3    85   11.8   292     16.7   846.9    0.00       5    64.7  
 145    4:40   43.0    85   10.4   289     14.7   846.9    0.00       9    64.6  
 145    4:50   43.0    86   10.6   302     13.9   846.9    0.00      17    64.6  
 145    5:00   42.9    87    9.8   312     13.6   847.0    0.00      29    64.5  
 145    5:10   43.0    85    9.9   318     14.1   847.0    0.00      47    64.5  
 145    5:20   43.1    85    8.8   308     12.7   847.1    0.00      88    64.4  
 145    5:30   43.3    85    9.1   316     13.0   847.1    0.00     124    64.4  
 145    5:40   43.7    85    6.1   295      9.5   847.2    0.00     148    64.3  
 145    5:50   44.1    84    7.0   300     10.1   847.3    0.00     255    64.3  
 145    6:00   44.7    83    8.2   321     10.4   847.3    0.00     299    64.2  
 145    6:10   44.8    83    7.8   315      9.9   847.4    0.00     258    64.2  
 145    6:20   44.7    83    7.4   321      9.5   847.5    0.00     241    64.1  
 145    6:30   44.6    82    6.0   305      8.4   847.6    0.00     257    64.1  
 145    6:40   45.1    82    5.9   315      8.9   847.6    0.00     379    64.0  
 145    6:50   45.1    81    7.7   300      9.9   847.6    0.00     380    64.0  
 145    7:00   45.0    81    7.1   289      9.8   847.7    0.00     388    63.9  
 145    7:10   45.5    79    6.6   306      9.4   847.8    0.00     657    63.9  
 145    7:20   46.5    77    6.0   319      8.4   847.9    0.00     669    63.8  
 145    7:30   46.2    76    7.3   307      9.8   848.0    0.00     518    63.8  
 145    7:40   46.5    75    7.5   297     10.5   848.1    0.00     527    63.7  

Return to Fish Lake Valley, Nevada graphs page.


Western Regional Climate Center,wrcc@dri.edu